Time;durP1;ratioP1;P1;durP2;ratioP2;P2;SDS_P1;SDS_P2;PMS_P1;PMS_P2;Temp;Humidity;BMP_temperature;BMP_pressure;BME280_temperature;BME280_humidity;BME280_pressure;Samples;Min_cycle;Max_cycle;Signal;HPM_P1;HPM_P2
2022/08/16 00:01:17;;;;;;;12.57;11.20;;;21.20;99.90;;;;;;5063489;28;20451;-76
2022/08/16 00:03:43;;;;;;;13.00;11.38;;;21.20;99.90;;;;;;5065412;28;20032;-74
2022/08/16 00:06:09;;;;;;;12.00;10.90;;;21.20;99.90;;;;;;5064375;28;20082;-77
2022/08/16 00:08:35;;;;;;;13.77;11.00;;;21.10;99.90;;;;;;5060954;28;20068;-77
2022/08/16 00:11:01;;;;;;;11.57;10.20;;;21.10;99.90;;;;;;5061827;28;20378;-76
2022/08/16 00:13:26;;;;;;;10.65;9.27;;;20.80;99.90;;;;;;5065541;28;20044;-72
2022/08/16 00:15:52;;;;;;;10.73;9.73;;;21.70;99.90;;;;;;5064595;28;20136;-74
2022/08/16 00:18:18;;;;;;;12.05;9.48;;;21.10;99.90;;;;;;5045146;28;20082;-72
2022/08/16 00:20:46;;;;;;;10.98;9.52;;;21.00;99.90;;;;;;5061832;28;20381;-73
2022/08/16 00:23:13;;;;;;;11.02;9.45;;;21.00;99.90;;;;;;5044557;28;20048;-73
2022/08/16 00:25:39;;;;;;;9.85;8.85;;;20.90;99.90;;;;;;5064862;28;20045;-74
2022/08/16 00:28:06;;;;;;;9.75;8.80;;;21.20;99.90;;;;;;5064861;28;20079;-75
2022/08/16 00:30:32;;;;;;;12.23;9.18;;;20.90;99.90;;;;;;5060477;28;20040;-75
2022/08/16 00:32:59;;;;;;;10.57;8.07;;;21.00;99.90;;;;;;5061245;28;20036;-72
2022/08/16 00:35:30;;;;;;;9.13;8.23;;;21.00;99.90;;;;;;5064531;28;20079;-72
2022/08/16 00:37:56;;;;;;;9.90;8.60;;;21.40;99.90;;;;;;5064076;28;20055;-72
2022/08/16 00:40:38;;;;;;;12.45;9.57;;;21.20;99.90;;;;;;5043904;28;20052;-72
2022/08/16 00:43:09;;;;;;;12.80;9.93;;;21.00;99.90;;;;;;5043469;28;20132;-72
2022/08/16 00:46:30;;;;;;;10.02;9.02;;;21.00;99.90;;;;;;5063523;28;20044;-73
2022/08/16 00:48:58;;;;;;;13.63;9.88;;;21.00;99.90;;;;;;4978113;28;20034;-74
2022/08/16 00:51:24;;;;;;;11.23;9.10;;;20.90;99.90;;;;;;4979762;28;20049;-75
2022/08/16 00:53:53;;;;;;;10.43;9.27;;;20.80;99.90;;;;;;5021609;28;20040;-76
2022/08/16 00:56:23;;;;;;;12.55;9.63;;;20.80;99.90;;;;;;5062571;28;20045;-75
2022/08/16 00:58:51;;;;;;;10.80;9.25;;;20.80;99.90;;;;;;5060038;28;20033;-75
2022/08/16 01:01:17;;;;;;;12.93;10.52;;;20.90;99.90;;;;;;5062196;28;20092;-76
2022/08/16 01:03:50;;;;;;;11.25;10.15;;;20.80;99.90;;;;;;5064285;28;20041;-76
2022/08/16 01:06:17;;;;;;;13.35;11.80;;;20.80;99.90;;;;;;5062062;28;20044;-76
2022/08/16 01:08:46;;;;;;;14.80;12.02;;;20.90;99.90;;;;;;5060599;28;20029;-76
2022/08/16 01:11:12;;;;;;;13.10;10.52;;;20.80;99.90;;;;;;5043996;28;20147;-76
2022/08/16 01:13:40;;;;;;;13.52;10.88;;;20.70;99.90;;;;;;5045613;28;20123;-74
2022/08/16 01:16:12;;;;;;;14.50;10.52;;;20.80;99.90;;;;;;5063809;28;20446;-76
2022/08/16 01:18:43;;;;;;;15.45;11.20;;;20.80;99.90;;;;;;5059482;28;20479;-75
2022/08/16 01:21:16;;;;;;;12.00;10.95;;;20.80;99.90;;;;;;5060964;28;20037;-74
2022/08/16 01:24:09;;;;;;;12.73;11.35;;;20.80;99.90;;;;;;5063915;28;20037;-75
2022/08/16 01:26:36;;;;;;;12.07;10.88;;;20.80;99.90;;;;;;5034289;28;20670;-72
2022/08/16 01:29:08;;;;;;;12.25;10.85;;;20.80;99.90;;;;;;5042235;28;20489;-76
2022/08/16 01:31:34;;;;;;;11.32;10.00;;;20.80;99.90;;;;;;5034629;28;20041;-74
2022/08/16 01:34:00;;;;;;;13.07;11.73;;;20.80;99.90;;;;;;5040633;28;20508;-76
2022/08/16 01:36:26;;;;;;;11.80;10.68;;;20.80;99.90;;;;;;5042928;28;20056;-75
2022/08/16 01:38:52;;;;;;;12.55;11.35;;;20.80;99.90;;;;;;5059879;28;20041;-73
2022/08/16 01:41:22;;;;;;;13.43;12.30;;;20.80;99.90;;;;;;5060869;28;20517;-76
2022/08/16 01:43:49;;;;;;;12.95;11.80;;;20.80;99.90;;;;;;5063601;28;20033;-75
2022/08/16 01:46:43;;;;;;;14.82;12.27;;;20.80;99.90;;;;;;5061274;28;20049;-72
2022/08/16 01:49:22;;;;;;;15.23;12.60;;;20.90;99.90;;;;;;5039430;28;20040;-76
2022/08/16 01:51:54;;;;;;;14.23;11.90;;;20.80;99.90;;;;;;5063240;28;20049;-73
2022/08/16 01:54:21;;;;;;;15.10;13.10;;;20.80;99.90;;;;;;5061074;28;20041;-73
2022/08/16 01:56:46;;;;;;;14.32;12.88;;;20.80;99.90;;;;;;5060100;28;20112;-73
2022/08/16 01:59:13;;;;;;;14.18;12.23;;;21.40;99.90;;;;;;5060237;28;20187;-73
2022/08/16 02:01:40;;;;;;;12.52;11.52;;;21.40;99.90;;;;;;5044962;28;20041;-73
2022/08/16 02:04:06;;;;;;;12.90;11.73;;;20.80;99.90;;;;;;5045284;28;20404;-75
2022/08/16 02:06:33;;;;;;;15.35;13.00;;;20.80;99.90;;;;;;5059720;28;20045;-77
2022/08/16 02:08:59;;;;;;;14.15;12.30;;;20.80;99.90;;;;;;5058751;28;20509;-75
2022/08/16 02:11:26;;;;;;;14.05;12.57;;;20.80;99.90;;;;;;5061496;28;20501;-75
2022/08/16 02:13:51;;;;;;;13.50;12.30;;;20.80;99.90;;;;;;5063080;28;20032;-72
2022/08/16 02:16:18;;;;;;;12.95;11.85;;;20.30;99.90;;;;;;5061018;28;20051;-75
2022/08/16 02:18:44;;;;;;;13.75;11.77;;;21.00;99.90;;;;;;5059177;28;20288;-72
2022/08/16 02:21:11;;;;;;;13.25;11.27;;;20.80;99.90;;;;;;5059150;28;20037;-73
2022/08/16 02:23:37;;;;;;;13.43;12.13;;;20.80;99.90;;;;;;5016412;28;20041;-74
2022/08/16 02:26:04;;;;;;;12.55;11.45;;;20.90;99.90;;;;;;5059473;28;20407;-74
2022/08/16 02:28:30;;;;;;;13.93;12.38;;;21.60;99.90;;;;;;5061547;28;20397;-76
2022/08/16 02:30:59;;;;;;;14.18;12.70;;;21.00;99.90;;;;;;5061809;28;20040;-75
2022/08/16 02:33:25;;;;;;;14.63;12.93;;;21.20;99.90;;;;;;5060492;28;20041;-74
2022/08/16 02:35:51;;;;;;;12.98;11.77;;;21.60;99.90;;;;;;5058410;28;20045;-72
2022/08/16 02:38:17;;;;;;;13.90;12.40;;;21.00;99.90;;;;;;5059888;28;20040;-75
2022/08/16 02:40:42;;;;;;;14.65;13.18;;;21.30;99.90;;;;;;5062577;28;20603;-72
2022/08/16 02:43:08;;;;;;;15.43;13.80;;;21.20;99.90;;;;;;5061820;28;20037;-72
2022/08/16 02:45:34;;;;;;;14.50;13.13;;;20.70;99.90;;;;;;5041171;28;20404;-72
2022/08/16 02:47:59;;;;;;;14.80;12.65;;;20.70;99.90;;;;;;5024589;28;20226;-73
2022/08/16 02:50:25;;;;;;;14.82;13.32;;;21.40;99.90;;;;;;5059732;28;20132;-73
2022/08/16 02:52:51;;;;;;;14.25;12.68;;;20.60;99.90;;;;;;5062426;28;20480;-76
2022/08/16 02:55:17;;;;;;;14.93;13.48;;;20.60;99.90;;;;;;5061659;28;20093;-76
2022/08/16 02:57:46;;;;;;;17.33;14.35;;;20.60;99.90;;;;;;5040390;28;20082;-76
2022/08/16 03:00:13;;;;;;;14.55;13.10;;;21.00;99.90;;;;;;5058568;28;20037;-76
2022/08/16 03:02:41;;;;;;;13.85;11.82;;;20.60;99.90;;;;;;5051017;28;20037;-75
2022/08/16 03:05:08;;;;;;;15.82;14.13;;;20.60;99.90;;;;;;5058103;28;20124;-75
2022/08/16 03:07:35;;;;;;;15.95;13.27;;;20.60;99.90;;;;;;5062212;28;20040;-75
2022/08/16 03:10:01;;;;;;;15.77;14.38;;;20.60;99.90;;;;;;5065605;28;20036;-73
2022/08/16 03:12:27;;;;;;;14.25;12.93;;;20.40;99.90;;;;;;5063905;28;20040;-75
2022/08/16 03:14:52;;;;;;;17.27;14.27;;;20.70;99.90;;;;;;5045004;28;20045;-72
2022/08/16 03:17:18;;;;;;;14.93;13.38;;;20.40;99.90;;;;;;5063532;28;20037;-74
2022/08/16 03:19:44;;;;;;;15.68;14.07;;;20.40;99.90;;;;;;5063729;28;20507;-73
2022/08/16 03:22:10;;;;;;;19.77;14.40;;;20.40;99.90;;;;;;5066267;28;20028;-75
2022/08/16 03:24:36;;;;;;;16.27;14.77;;;20.30;99.90;;;;;;5063224;28;20534;-72
2022/08/16 03:27:02;;;;;;;17.73;15.32;;;20.30;99.90;;;;;;5062423;28;20519;-74
2022/08/16 03:29:30;;;;;;;16.75;15.18;;;20.30;99.90;;;;;;5064034;28;20434;-74
2022/08/16 03:31:57;;;;;;;17.58;15.93;;;20.70;99.90;;;;;;5065466;28;20079;-77
2022/08/16 03:34:23;;;;;;;17.67;16.02;;;20.20;99.90;;;;;;5064748;28;20061;-75
2022/08/16 03:36:48;;;;;;;17.65;16.05;;;20.20;99.90;;;;;;5044744;28;20039;-76
2022/08/16 03:39:14;;;;;;;17.17;15.68;;;20.20;99.90;;;;;;5061823;28;20036;-75
2022/08/16 03:41:40;;;;;;;17.60;15.85;;;20.20;99.90;;;;;;5031915;28;20472;-74
2022/08/16 03:44:06;;;;;;;18.88;17.08;;;20.60;99.90;;;;;;5048051;28;20276;-74
2022/08/16 03:46:33;;;;;;;17.00;15.32;;;20.20;99.90;;;;;;5062918;28;20056;-74
2022/08/16 03:48:59;;;;;;;15.73;14.23;;;20.20;99.90;;;;;;5062153;28;20041;-77
2022/08/16 03:51:25;;;;;;;17.20;15.50;;;20.20;99.90;;;;;;5045845;28;20049;-77
2022/08/16 03:53:50;;;;;;;17.70;15.88;;;20.10;99.90;;;;;;5046999;28;20444;-75
2022/08/16 03:56:16;;;;;;;17.63;15.63;;;20.10;99.90;;;;;;5064458;28;20058;-75
2022/08/16 03:58:42;;;;;;;17.23;15.57;;;20.10;99.90;;;;;;5062025;28;20515;-77
2022/08/16 04:01:09;;;;;;;17.17;15.38;;;20.10;99.90;;;;;;5061651;28;20421;-75
2022/08/16 04:03:35;;;;;;;18.25;16.48;;;20.10;99.90;;;;;;5064644;28;20052;-75
2022/08/16 04:06:01;;;;;;;18.30;16.60;;;20.10;99.90;;;;;;5065513;28;20082;-75
2022/08/16 04:08:27;;;;;;;18.33;16.52;;;20.00;99.90;;;;;;5045087;28;20078;-72
2022/08/16 04:10:54;;;;;;;18.00;16.35;;;20.00;99.90;;;;;;5044597;28;20052;-72
2022/08/16 04:13:20;;;;;;;18.65;16.65;;;20.00;99.90;;;;;;5062730;28;20033;-75
2022/08/16 04:15:46;;;;;;;18.08;16.38;;;20.00;99.90;;;;;;5064701;28;20087;-75
2022/08/16 04:18:12;;;;;;;17.38;15.75;;;19.90;99.90;;;;;;5065148;28;20500;-72
2022/08/16 04:20:38;;;;;;;19.83;15.88;;;19.90;99.90;;;;;;5036092;28;20025;-75
2022/08/16 04:23:06;;;;;;;18.50;16.80;;;20.10;99.90;;;;;;5061186;28;20072;-73
2022/08/16 04:25:33;;;;;;;18.17;16.52;;;20.00;99.90;;;;;;5063781;28;20056;-75
2022/08/16 04:27:59;;;;;;;18.67;16.88;;;20.20;99.90;;;;;;5047474;28;20032;-76
2022/08/16 04:30:26;;;;;;;17.98;16.00;;;19.90;99.90;;;;;;5063372;28;20170;-76
2022/08/16 04:32:52;;;;;;;18.30;16.45;;;19.20;99.90;;;;;;5061533;28;20045;-75
2022/08/16 04:35:21;;;;;;;17.40;15.85;;;19.80;99.90;;;;;;5061046;28;20057;-75
2022/08/16 04:37:48;;;;;;;18.35;16.58;;;19.70;99.90;;;;;;5053881;28;20050;-75
2022/08/16 04:40:14;;;;;;;18.10;16.30;;;19.70;99.90;;;;;;5026613;28;20391;-73
2022/08/16 04:42:41;;;;;;;16.88;15.15;;;19.70;99.90;;;;;;5046227;28;20623;-72
2022/08/16 04:45:09;;;;;;;18.80;16.88;;;19.70;99.90;;;;;;5064987;28;20047;-72
2022/08/16 04:47:35;;;;;;;18.73;15.52;;;19.70;99.90;;;;;;5044895;28;20534;-73
2022/08/16 04:50:12;;;;;;;17.65;15.77;;;19.60;99.90;;;;;;5060368;28;20106;-73
2022/08/16 04:52:38;;;;;;;17.25;15.63;;;19.70;99.90;;;;;;5064033;28;20045;-73
2022/08/16 04:55:13;;;;;;;17.10;15.23;;;20.20;99.90;;;;;;5064953;28;20098;-74
2022/08/16 04:57:39;;;;;;;16.55;15.15;;;19.60;99.90;;;;;;5061753;28;20120;-74
2022/08/16 05:00:12;;;;;;;16.65;14.98;;;19.70;99.90;;;;;;5061298;28;20052;-74
2022/08/16 05:02:38;;;;;;;16.57;14.80;;;19.60;99.90;;;;;;5063546;28;20123;-75
2022/08/16 05:05:05;;;;;;;16.55;14.85;;;19.70;99.90;;;;;;5063951;28;20044;-74
2022/08/16 05:07:31;;;;;;;17.02;15.32;;;19.60;99.90;;;;;;5063624;28;20040;-74
2022/08/16 05:09:56;;;;;;;15.55;14.00;;;19.60;99.90;;;;;;5061081;28;20290;-75
2022/08/16 05:12:22;;;;;;;15.20;13.80;;;20.40;99.90;;;;;;5042599;28;20164;-73
2022/08/16 05:14:47;;;;;;;19.40;16.17;;;19.80;99.90;;;;;;5064235;28;20028;-74
2022/08/16 05:17:13;;;;;;;18.02;15.65;;;19.70;99.90;;;;;;5064467;28;20089;-73
2022/08/16 05:19:39;;;;;;;16.42;14.73;;;20.00;99.90;;;;;;5043005;28;20044;-75
2022/08/16 05:22:04;;;;;;;16.63;14.98;;;19.70;99.90;;;;;;5061022;28;20408;-74
2022/08/16 05:24:30;;;;;;;16.05;14.55;;;20.40;99.90;;;;;;5043227;28;20048;-74
2022/08/16 05:26:56;;;;;;;16.75;15.07;;;20.40;99.90;;;;;;5064053;28;20119;-76
2022/08/16 05:29:21;;;;;;;18.00;16.20;;;19.60;99.90;;;;;;5045748;28;20036;-73
2022/08/16 05:31:47;;;;;;;18.73;17.05;;;19.60;99.90;;;;;;5041694;28;20163;-75
2022/08/16 05:34:13;;;;;;;16.90;15.07;;;19.60;99.90;;;;;;5060274;28;20152;-77
2022/08/16 05:36:38;;;;;;;18.95;16.98;;;19.60;99.90;;;;;;5062527;28;20052;-76
2022/08/16 05:39:06;;;;;;;17.02;15.20;;;19.60;99.90;;;;;;5062708;28;20452;-76
2022/08/16 05:41:32;;;;;;;16.98;15.35;;;19.60;99.90;;;;;;5062773;28;20044;-75
2022/08/16 05:43:59;;;;;;;18.33;16.35;;;19.60;99.90;;;;;;5060329;28;20401;-76
2022/08/16 05:46:25;;;;;;;17.58;15.77;;;19.60;99.90;;;;;;5059709;28;20049;-75
2022/08/16 05:48:51;;;;;;;17.70;15.93;;;19.60;99.90;;;;;;5034128;28;20475;-74
2022/08/16 05:51:18;;;;;;;19.00;16.88;;;19.60;99.90;;;;;;5060188;28;20045;-76
2022/08/16 05:53:44;;;;;;;17.20;15.55;;;19.60;99.90;;;;;;5062024;28;20095;-77
2022/08/16 05:56:10;;;;;;;18.20;16.42;;;19.60;99.90;;;;;;5062201;28;20040;-74
2022/08/16 05:58:36;;;;;;;19.33;17.30;;;19.80;99.90;;;;;;5061790;28;20051;-76
2022/08/16 06:01:03;;;;;;;17.95;16.23;;;19.60;99.90;;;;;;5059353;28;20434;-73
2022/08/16 06:03:28;;;;;;;23.95;17.17;;;19.60;99.90;;;;;;5060281;28;20049;-76
2022/08/16 06:05:54;;;;;;;17.92;16.20;;;19.60;99.90;;;;;;5063258;28;20115;-75
2022/08/16 06:08:19;;;;;;;18.60;16.65;;;20.20;99.90;;;;;;5062662;28;20074;-75
2022/08/16 06:10:45;;;;;;;17.95;16.17;;;19.60;99.90;;;;;;5060959;28;20123;-74
2022/08/16 06:13:14;;;;;;;18.38;16.48;;;19.50;99.90;;;;;;5059759;28;20498;-75
2022/08/16 06:15:39;;;;;;;18.35;16.55;;;20.00;99.90;;;;;;5043011;28;20110;-73
2022/08/16 06:18:05;;;;;;;35.83;32.10;;;19.60;99.90;;;;;;5062847;28;20121;-76
2022/08/16 06:20:30;;;;;;;22.77;20.25;;;19.60;99.90;;;;;;5062479;28;20052;-76
2022/08/16 06:22:57;;;;;;;19.63;17.60;;;19.70;99.90;;;;;;5041322;28;20056;-75
2022/08/16 06:25:25;;;;;;;20.17;17.75;;;19.70;99.90;;;;;;5059640;28;20075;-75
2022/08/16 06:27:51;;;;;;;18.98;16.50;;;20.40;99.90;;;;;;5061635;28;20036;-72
2022/08/16 06:30:17;;;;;;;17.73;15.75;;;19.70;99.90;;;;;;5062810;28;20053;-76
2022/08/16 06:32:43;;;;;;;21.98;18.15;;;20.30;99.90;;;;;;5060318;28;20056;-73
2022/08/16 06:35:10;;;;;;;20.55;16.15;;;20.20;99.90;;;;;;5040908;28;20045;-76
2022/08/16 06:37:36;;;;;;;18.80;17.00;;;19.80;99.90;;;;;;5060362;28;20392;-75
2022/08/16 06:40:03;;;;;;;19.00;17.02;;;19.90;99.90;;;;;;5062712;28;20127;-71
2022/08/16 06:42:29;;;;;;;20.60;18.50;;;19.90;99.90;;;;;;5061709;28;20043;-71
2022/08/16 06:44:55;;;;;;;17.88;16.27;;;19.90;99.90;;;;;;5058835;28;20070;-71
2022/08/16 06:47:20;;;;;;;22.70;18.02;;;19.90;99.90;;;;;;5059160;28;20076;-71
2022/08/16 06:49:46;;;;;;;19.48;17.52;;;20.60;99.90;;;;;;5060924;28;20044;-72
2022/08/16 06:52:12;;;;;;;18.50;16.40;;;20.00;99.90;;;;;;5062550;28;20099;-72
2022/08/16 06:54:38;;;;;;;21.23;18.77;;;20.00;99.90;;;;;;5062026;28;20048;-72
2022/08/16 06:57:04;;;;;;;19.10;17.13;;;20.10;99.90;;;;;;5058684;28;20033;-75
2022/08/16 06:59:31;;;;;;;20.17;18.10;;;20.20;99.90;;;;;;5058884;28;20053;-73
2022/08/16 07:01:57;;;;;;;22.77;18.92;;;20.40;99.90;;;;;;5062749;28;20062;-75
2022/08/16 07:04:22;;;;;;;24.63;19.65;;;20.20;99.90;;;;;;5061717;28;20048;-75
2022/08/16 07:06:48;;;;;;;22.05;20.10;;;20.40;99.90;;;;;;5060246;28;20052;-75
2022/08/16 07:09:14;;;;;;;21.45;19.02;;;20.30;99.90;;;;;;5058961;28;20041;-76
2022/08/16 07:11:40;;;;;;;20.92;18.77;;;20.70;99.90;;;;;;5059504;28;20040;-75
2022/08/16 07:14:06;;;;;;;22.63;19.13;;;21.40;99.90;;;;;;5062381;28;20373;-73
2022/08/16 07:16:32;;;;;;;20.95;18.95;;;20.50;99.90;;;;;;5062388;28;20055;-73
2022/08/16 07:18:58;;;;;;;21.25;19.02;;;20.50;99.90;;;;;;5049799;28;20029;-76
2022/08/16 07:21:24;;;;;;;20.95;18.92;;;20.90;99.90;;;;;;5058645;28;20087;-73
2022/08/16 07:23:50;;;;;;;20.10;17.85;;;20.60;99.90;;;;;;5061219;28;20072;-75
2022/08/16 07:26:22;;;;;;;19.35;17.48;;;20.70;99.90;;;;;;5061446;28;20094;-77
2022/08/16 07:28:47;;;;;;;19.15;17.35;;;20.80;99.90;;;;;;5059999;28;20037;-76
2022/08/16 07:31:14;;;;;;;19.75;16.35;;;20.90;99.90;;;;;;5056475;28;20047;-75
2022/08/16 07:33:40;;;;;;;19.02;17.08;;;21.00;99.90;;;;;;5059359;28;20493;-75
2022/08/16 07:36:08;;;;;;;20.75;17.52;;;21.70;99.90;;;;;;5062107;28;20040;-75
2022/08/16 07:38:34;;;;;;;19.35;17.20;;;21.10;99.90;;;;;;5061389;28;20476;-72
2022/08/16 07:41:00;;;;;;;20.10;17.90;;;21.10;99.90;;;;;;5058771;28;20039;-75
2022/08/16 07:43:26;;;;;;;22.52;18.90;;;21.10;99.90;;;;;;5058195;28;20128;-73
2022/08/16 07:45:52;;;;;;;20.23;18.23;;;21.20;99.90;;;;;;5042830;28;20477;-73
2022/08/16 07:48:18;;;;;;;21.42;19.30;;;21.20;99.90;;;;;;5044120;28;20040;-72
2022/08/16 07:50:44;;;;;;;20.05;17.70;;;21.30;99.90;;;;;;5060328;28;20051;-74
2022/08/16 07:53:11;;;;;;;23.10;19.85;;;21.30;99.90;;;;;;5058946;28;20040;-73
2022/08/16 07:55:37;;;;;;;21.02;18.88;;;21.40;99.90;;;;;;5061485;28;20136;-74
2022/08/16 07:58:03;;;;;;;21.23;17.90;;;21.50;99.90;;;;;;5046983;28;20127;-75
2022/08/16 08:00:29;;;;;;;19.30;17.25;;;21.50;99.90;;;;;;5065566;28;20048;-74
2022/08/16 08:02:55;;;;;;;18.30;16.35;;;21.60;99.90;;;;;;5063290;28;20045;-74
2022/08/16 08:05:22;;;;;;;27.25;24.55;;;21.70;99.90;;;;;;5061427;28;20045;-75
2022/08/16 08:07:49;;;;;;;21.50;18.25;;;21.80;99.90;;;;;;5063291;28;20041;-74
2022/08/16 08:10:15;;;;;;;17.77;16.08;;;21.80;99.90;;;;;;5065599;28;20036;-73
2022/08/16 08:12:42;;;;;;;18.20;16.23;;;21.90;99.90;;;;;;5064907;28;20040;-75
2022/08/16 08:15:10;;;;;;;17.98;16.10;;;21.90;99.90;;;;;;5062208;28;20037;-74
2022/08/16 08:17:38;;;;;;;16.63;14.77;;;22.00;99.90;;;;;;5061954;28;20114;-74
2022/08/16 08:20:06;;;;;;;17.42;15.50;;;22.10;99.90;;;;;;5052909;28;20400;-76
2022/08/16 08:22:32;;;;;;;17.00;15.25;;;22.10;99.90;;;;;;5044190;28;20071;-76
2022/08/16 08:24:57;;;;;;;18.20;14.18;;;22.40;99.90;;;;;;5046489;28;20040;-76
2022/08/16 08:27:23;;;;;;;20.05;15.55;;;22.20;99.90;;;;;;5064708;28;20044;-74
2022/08/16 08:29:49;;;;;;;38.10;25.88;;;22.30;99.90;;;;;;5063625;28;20125;-75
2022/08/16 08:32:14;;;;;;;16.73;15.00;;;22.40;99.90;;;;;;5061921;28;20033;-75
2022/08/16 08:34:40;;;;;;;15.48;13.73;;;22.50;99.90;;;;;;5060949;28;20118;-73
2022/08/16 08:37:09;;;;;;;19.48;14.25;;;22.50;99.90;;;;;;5049367;28;20053;-74
2022/08/16 08:39:37;;;;;;;27.38;15.75;;;22.60;99.90;;;;;;5064693;28;20098;-74
2022/08/16 08:42:04;;;;;;;47.90;19.98;;;22.80;99.90;;;;;;5044093;28;20079;-72
2022/08/16 08:44:30;;;;;;;42.90;20.83;;;22.70;99.90;;;;;;5061910;28;20102;-74
2022/08/16 08:46:57;;;;;;;34.17;21.30;;;22.80;99.90;;;;;;5044733;28;20068;-74
2022/08/16 08:49:23;;;;;;;17.88;12.80;;;23.00;99.90;;;;;;5064982;28;20127;-74
2022/08/16 08:51:49;;;;;;;13.48;10.43;;;23.10;99.90;;;;;;5063913;28;20124;-73
2022/08/16 08:54:14;;;;;;;11.32;10.15;;;22.80;99.90;;;;;;5060771;28;20040;-73
2022/08/16 08:56:40;;;;;;;14.63;10.45;;;22.90;99.90;;;;;;5061561;28;20045;-73
2022/08/16 08:59:07;;;;;;;14.00;11.68;;;22.80;99.90;;;;;;5063997;28;20042;-74
2022/08/16 09:01:35;;;;;;;22.65;15.05;;;23.00;99.90;;;;;;5064089;28;20054;-74
2022/08/16 09:04:02;;;;;;;19.20;12.45;;;23.00;99.90;;;;;;5044501;28;20097;-75
2022/08/16 09:06:31;;;;;;;20.20;14.10;;;23.10;99.90;;;;;;5059909;28;20037;-75
2022/08/16 09:08:57;;;;;;;18.52;13.27;;;23.20;99.90;;;;;;5061811;28;20206;-73
2022/08/16 09:11:24;;;;;;;11.45;10.32;;;23.20;99.90;;;;;;5064612;28;20048;-74
2022/08/16 09:13:50;;;;;;;22.70;14.23;;;23.30;99.90;;;;;;5063835;28;20041;-72
2022/08/16 09:16:16;;;;;;;14.27;11.32;;;23.40;99.90;;;;;;5060322;28;20045;-74
2022/08/16 09:18:43;;;;;;;12.48;10.30;;;23.40;99.90;;;;;;5042936;28;20068;-74
2022/08/16 09:21:09;;;;;;;20.27;14.57;;;23.40;99.90;;;;;;5063840;28;20045;-76
2022/08/16 09:23:37;;;;;;;19.63;13.50;;;23.50;99.90;;;;;;5029394;28;20036;-72
2022/08/16 09:26:09;;;;;;;17.05;13.63;;;23.60;99.90;;;;;;5061912;28;20040;-75
2022/08/16 09:28:36;;;;;;;14.25;12.13;;;23.70;99.90;;;;;;5042744;28;20091;-75
2022/08/16 09:31:04;;;;;;;12.93;11.73;;;23.70;99.90;;;;;;5061978;28;20128;-75
2022/08/16 09:33:29;;;;;;;12.32;11.23;;;23.80;99.90;;;;;;5063965;28;20056;-74
2022/08/16 09:35:55;;;;;;;19.67;14.45;;;23.80;99.90;;;;;;5062157;28;20519;-75
2022/08/16 09:38:23;;;;;;;19.58;13.80;;;23.90;99.90;;;;;;5060314;28;20045;-73
2022/08/16 09:40:48;;;;;;;16.58;13.85;;;24.00;99.90;;;;;;5060412;28;20041;-72
2022/08/16 09:43:18;;;;;;;15.07;11.65;;;24.40;99.90;;;;;;5062073;28;20045;-74
2022/08/16 09:45:45;;;;;;;18.60;13.23;;;24.10;99.90;;;;;;5029262;28;20044;-72
2022/08/16 09:48:13;;;;;;;21.42;17.40;;;24.20;99.90;;;;;;5060424;28;20116;-72
2022/08/16 09:50:40;;;;;;;17.98;15.60;;;24.20;99.90;;;;;;5059380;28;20044;-74
2022/08/16 09:53:12;;;;;;;20.50;13.25;;;24.30;99.90;;;;;;5044553;28;20053;-73
2022/08/16 09:55:38;;;;;;;17.15;12.90;;;24.30;99.90;;;;;;5056402;28;20041;-79
2022/08/16 09:58:04;;;;;;;18.80;13.07;;;24.30;99.90;;;;;;5045975;28;20072;-78
2022/08/16 10:00:30;;;;;;;18.30;12.63;;;24.40;99.90;;;;;;5059373;28;20111;-74
2022/08/16 10:02:57;;;;;;;31.15;19.15;;;24.50;99.90;;;;;;5060598;28;20041;-77
2022/08/16 10:05:23;;;;;;;19.38;15.50;;;24.80;99.90;;;;;;5061630;28;20088;-76
2022/08/16 10:07:51;;;;;;;13.02;11.68;;;24.60;99.90;;;;;;5058700;28;20064;-79
2022/08/16 10:10:21;;;;;;;17.90;13.07;;;24.70;99.90;;;;;;5063406;28;20044;-78
2022/08/16 10:15:34;;;;;;;15.52;11.48;;;24.80;99.90;;;;;;5052964;28;20128;-75
2022/08/16 10:18:02;;;;;;;16.73;12.02;;;24.90;99.90;;;;;;5063341;28;20112;-72
2022/08/16 10:20:33;;;;;;;25.05;13.45;;;24.90;99.90;;;;;;5062770;28;20041;-76
2022/08/16 10:22:58;;;;;;;13.38;11.43;;;25.00;99.90;;;;;;5062807;28;20108;-75
2022/08/16 10:25:24;;;;;;;11.45;9.68;;;25.10;99.90;;;;;;5056923;28;20151;-74
2022/08/16 10:27:50;;;;;;;28.80;15.13;;;25.10;99.90;;;;;;5060834;28;20044;-73
2022/08/16 10:30:16;;;;;;;24.33;13.05;;;25.10;99.90;;;;;;5060122;28;20497;-75
2022/08/16 10:32:42;;;;;;;15.60;10.15;;;25.30;99.90;;;;;;5058229;28;20033;-75
2022/08/16 10:35:08;;;;;;;23.80;13.25;;;25.30;99.90;;;;;;5061521;28;20053;-74
2022/08/16 10:37:33;;;;;;;22.70;9.98;;;25.40;99.90;;;;;;5044133;28;20094;-74
2022/08/16 10:40:00;;;;;;;20.58;11.45;;;25.40;99.90;;;;;;5061027;28;20060;-75
2022/08/16 10:42:26;;;;;;;15.15;11.05;;;25.50;99.90;;;;;;5059743;28;20053;-78
2022/08/16 10:44:52;;;;;;;13.70;9.70;;;25.60;99.90;;;;;;5041647;28;20045;-78
2022/08/16 10:47:18;;;;;;;14.50;9.15;;;25.60;99.90;;;;;;5060757;28;20051;-72
2022/08/16 10:49:44;;;;;;;16.23;10.40;;;25.70;99.90;;;;;;5043641;28;20036;-74
2022/08/16 10:52:10;;;;;;;16.77;11.43;;;25.70;99.90;;;;;;5063639;28;20400;-73
2022/08/16 10:54:35;;;;;;;15.15;8.82;;;25.80;99.90;;;;;;5057839;28;20608;-72
2022/08/16 10:57:04;;;;;;;9.45;8.55;;;25.80;99.90;;;;;;5025274;28;20082;-73
2022/08/16 10:59:32;;;;;;;9.98;8.70;;;25.90;99.90;;;;;;5044701;28;20062;-74
2022/08/16 11:01:58;;;;;;;12.20;7.55;;;25.90;99.90;;;;;;5039458;28;20071;-73
2022/08/16 11:04:25;;;;;;;15.98;10.43;;;26.00;99.90;;;;;;5049838;28;20076;-78
2022/08/16 11:06:51;;;;;;;14.25;7.03;;;26.10;99.90;;;;;;5062822;28;20105;-79
2022/08/16 11:09:17;;;;;;;58.75;24.25;;;26.10;99.90;;;;;;5059505;28;20123;-78
2022/08/16 11:11:42;;;;;;;19.38;9.68;;;26.10;99.90;;;;;;5059166;28;20097;-78
2022/08/16 11:14:08;;;;;;;18.58;8.30;;;26.30;99.90;;;;;;5059936;28;20098;-78
2022/08/16 11:16:35;;;;;;;9.70;5.57;;;26.30;99.90;;;;;;5058406;28;20116;-73
2022/08/16 11:19:02;;;;;;;14.98;7.80;;;26.40;99.90;;;;;;5056537;28;20041;-79
2022/08/16 11:21:28;;;;;;;12.18;6.10;;;26.60;99.90;;;;;;5044782;28;20052;-77
2022/08/16 11:23:54;;;;;;;7.28;4.85;;;26.50;99.90;;;;;;5057755;28;20033;-80
2022/08/16 11:26:21;;;;;;;8.13;5.57;;;26.60;99.90;;;;;;5060076;28;20565;-80
2022/08/16 11:28:49;;;;;;;8.80;7.20;;;26.70;99.90;;;;;;5057321;28;20047;-79
2022/08/16 11:31:15;;;;;;;12.23;10.65;;;26.90;99.90;;;;;;5062936;28;20045;-80
2022/08/16 11:33:41;;;;;;;10.65;6.35;;;26.90;99.90;;;;;;5070006;28;20057;-82
2022/08/16 11:36:07;;;;;;;9.10;6.03;;;27.10;99.90;;;;;;5063944;28;20052;-79
2022/08/16 11:38:33;;;;;;;8.10;5.60;;;27.10;99.90;;;;;;5051822;28;20032;-76
2022/08/16 11:41:00;;;;;;;7.05;5.53;;;27.40;99.90;;;;;;5059497;28;20044;-77
2022/08/16 11:43:33;;;;;;;14.65;8.60;;;27.20;99.90;;;;;;5044591;28;20669;-75
2022/08/16 11:46:07;;;;;;;14.90;8.00;;;27.30;99.90;;;;;;5064673;28;20484;-75
2022/08/16 11:48:32;;;;;;;;;;;27.40;99.90;;;;;;5055122;28;20115;-75
2022/08/16 11:50:59;;;;;;;15.60;8.30;;;27.50;99.90;;;;;;5043886;28;20424;-75
2022/08/16 11:53:27;;;;;;;27.08;10.93;;;27.50;99.90;;;;;;5065054;28;20084;-75
2022/08/16 11:55:54;;;;;;;28.95;12.63;;;27.50;99.90;;;;;;5065849;28;20043;-75
2022/08/16 11:58:20;;;;;;;74.78;44.28;;;27.60;99.90;;;;;;5063108;28;20123;-76
2022/08/16 12:00:47;;;;;;;11.15;8.18;;;27.70;99.90;;;;;;5044584;28;20091;-74
2022/08/16 12:03:14;;;;;;;11.70;6.97;;;27.80;99.90;;;;;;5045776;28;20127;-75
2022/08/16 12:05:42;;;;;;;12.95;6.20;;;27.90;99.90;;;;;;5065096;28;20091;-73
2022/08/16 12:08:09;;;;;;;17.30;9.75;;;27.80;99.60;;;;;;5065172;28;20044;-72
2022/08/16 12:10:37;;;;;;;6.85;5.53;;;27.70;99.60;;;;;;5062443;28;20068;-74
2022/08/16 12:13:05;;;;;;;10.85;5.75;;;27.60;99.70;;;;;;5062313;28;20392;-75
2022/08/16 12:15:30;;;;;;;8.20;5.82;;;27.70;99.90;;;;;;5064935;28;20048;-74
2022/08/16 12:17:56;;;;;;;7.93;5.63;;;27.70;99.90;;;;;;5064794;28;20109;-75
2022/08/16 12:20:28;;;;;;;13.07;9.63;;;27.70;99.90;;;;;;5063509;28;20044;-73
2022/08/16 12:22:54;;;;;;;7.95;4.90;;;27.90;99.60;;;;;;5062105;28;20116;-73
2022/08/16 12:25:21;;;;;;;12.00;4.50;;;27.80;99.00;;;;;;5062564;28;20056;-74
2022/08/16 12:27:48;;;;;;;6.65;4.95;;;28.00;98.60;;;;;;5030443;28;20044;-73
2022/08/16 12:30:18;;;;;;;7.88;4.88;;;28.00;98.40;;;;;;5064522;28;20053;-73
2022/08/16 12:32:44;;;;;;;10.38;6.10;;;28.00;97.80;;;;;;5042977;28;20052;-72